sensor_id;sensor_type;location;lat;lon;timestamp;pressure;altitude;pressure_sealevel;temperature;humidity
64080;BME280;51042;49.696;10.808;2023-09-19T00:01:05;97912.50;;;14.19;100.00
64080;BME280;51042;49.696;10.808;2023-09-19T00:03:32;97920.78;;;14.19;100.00
64080;BME280;51042;49.696;10.808;2023-09-19T00:05:57;97914.50;;;14.19;100.00
64080;BME280;51042;49.696;10.808;2023-09-19T00:08:23;97921.38;;;14.23;100.00
64080;BME280;51042;49.696;10.808;2023-09-19T00:10:48;97923.50;;;14.28;100.00
64080;BME280;51042;49.696;10.808;2023-09-19T00:13:13;97921.97;;;14.27;100.00
64080;BME280;51042;49.696;10.808;2023-09-19T00:15:42;97928.41;;;14.24;100.00
64080;BME280;51042;49.696;10.808;2023-09-19T00:18:08;97922.31;;;14.20;100.00
64080;BME280;51042;49.696;10.808;2023-09-19T00:20:37;97920.50;;;14.17;100.00
64080;BME280;51042;49.696;10.808;2023-09-19T00:23:02;97930.78;;;14.17;100.00
64080;BME280;51042;49.696;10.808;2023-09-19T00:25:29;97942.28;;;14.15;100.00
64080;BME280;51042;49.696;10.808;2023-09-19T00:27:54;97933.69;;;14.13;100.00
64080;BME280;51042;49.696;10.808;2023-09-19T00:30:19;97930.06;;;14.07;100.00
64080;BME280;51042;49.696;10.808;2023-09-19T00:32:46;97931.03;;;14.04;100.00
64080;BME280;51042;49.696;10.808;2023-09-19T00:35:14;97936.22;;;14.02;100.00
64080;BME280;51042;49.696;10.808;2023-09-19T00:37:43;97937.94;;;14.00;100.00
64080;BME280;51042;49.696;10.808;2023-09-19T00:40:09;97951.44;;;13.98;100.00
64080;BME280;51042;49.696;10.808;2023-09-19T00:42:40;97953.44;;;13.97;100.00
64080;BME280;51042;49.696;10.808;2023-09-19T00:45:06;97959.72;;;13.98;100.00
64080;BME280;51042;49.696;10.808;2023-09-19T00:47:31;97957.25;;;14.00;100.00
64080;BME280;51042;49.696;10.808;2023-09-19T00:49:56;97954.97;;;13.98;100.00
64080;BME280;51042;49.696;10.808;2023-09-19T00:52:22;97960.03;;;14.00;100.00
64080;BME280;51042;49.696;10.808;2023-09-19T00:54:48;97960.03;;;14.00;100.00
64080;BME280;51042;49.696;10.808;2023-09-19T00:57:14;97958.75;;;14.01;100.00
64080;BME280;51042;49.696;10.808;2023-09-19T00:59:40;97957.06;;;14.03;100.00
64080;BME280;51042;49.696;10.808;2023-09-19T01:02:05;97954.31;;;14.03;100.00
64080;BME280;51042;49.696;10.808;2023-09-19T01:04:31;97951.25;;;14.01;100.00
64080;BME280;51042;49.696;10.808;2023-09-19T01:06:56;97951.44;;;13.98;100.00
64080;BME280;51042;49.696;10.808;2023-09-19T01:09:22;97958.94;;;13.97;100.00
64080;BME280;51042;49.696;10.808;2023-09-19T01:11:48;97955.59;;;13.93;100.00
64080;BME280;51042;49.696;10.808;2023-09-19T01:14:20;97959.13;;;13.94;100.00
64080;BME280;51042;49.696;10.808;2023-09-19T01:16:57;97964.66;;;13.94;100.00
64080;BME280;51042;49.696;10.808;2023-09-19T01:24:47;97971.06;;;14.00;100.00
64080;BME280;51042;49.696;10.808;2023-09-19T01:28:06;97969.31;;;14.11;100.00
64080;BME280;51042;49.696;10.808;2023-09-19T01:30:10;97964.28;;;14.24;100.00
64080;BME280;51042;49.696;10.808;2023-09-19T01:32:36;97963.78;;;14.35;100.00
64080;BME280;51042;49.696;10.808;2023-09-19T01:35:02;97971.25;;;14.44;100.00
64080;BME280;51042;49.696;10.808;2023-09-19T01:37:29;97977.94;;;14.52;100.00
64080;BME280;51042;49.696;10.808;2023-09-19T01:39:55;97980.81;;;14.57;100.00
64080;BME280;51042;49.696;10.808;2023-09-19T01:47:19;97979.16;;;14.75;100.00
64080;BME280;51042;49.696;10.808;2023-09-19T01:52:36;97990.59;;;14.82;100.00
64080;BME280;51042;49.696;10.808;2023-09-19T01:55:05;97981.81;;;14.84;100.00
64080;BME280;51042;49.696;10.808;2023-09-19T01:57:34;97993.94;;;14.86;100.00
64080;BME280;51042;49.696;10.808;2023-09-19T02:00:01;97985.66;;;14.86;100.00
64080;BME280;51042;49.696;10.808;2023-09-19T02:02:32;97993.47;;;14.88;100.00
64080;BME280;51042;49.696;10.808;2023-09-19T02:04:58;97993.47;;;14.88;100.00
64080;BME280;51042;49.696;10.808;2023-09-19T02:07:23;97993.16;;;14.86;100.00
64080;BME280;51042;49.696;10.808;2023-09-19T02:09:48;97991.63;;;14.85;100.00
64080;BME280;51042;49.696;10.808;2023-09-19T02:12:14;97992.41;;;14.85;100.00
64080;BME280;51042;49.696;10.808;2023-09-19T02:14:40;97997.81;;;14.80;100.00
64080;BME280;51042;49.696;10.808;2023-09-19T02:17:05;98000.28;;;14.78;100.00
64080;BME280;51042;49.696;10.808;2023-09-19T02:19:32;97997.16;;;14.70;100.00
64080;BME280;51042;49.696;10.808;2023-09-19T02:21:58;97996.28;;;14.64;100.00
64080;BME280;51042;49.696;10.808;2023-09-19T02:24:23;97998.44;;;14.60;100.00
64080;BME280;51042;49.696;10.808;2023-09-19T02:26:49;97997.56;;;14.54;100.00
64080;BME280;51042;49.696;10.808;2023-09-19T02:29:14;98002.38;;;14.44;100.00
64080;BME280;51042;49.696;10.808;2023-09-19T02:31:39;98003.66;;;14.34;100.00
64080;BME280;51042;49.696;10.808;2023-09-19T02:34:05;98001.06;;;14.30;100.00
64080;BME280;51042;49.696;10.808;2023-09-19T02:36:32;97999.25;;;14.27;100.00
64080;BME280;51042;49.696;10.808;2023-09-19T02:38:57;98000.00;;;14.28;100.00
64080;BME280;51042;49.696;10.808;2023-09-19T02:41:22;98012.09;;;14.30;100.00
64080;BME280;51042;49.696;10.808;2023-09-19T02:43:47;98005.66;;;14.34;100.00
64080;BME280;51042;49.696;10.808;2023-09-19T02:46:12;98010.41;;;14.33;100.00
64080;BME280;51042;49.696;10.808;2023-09-19T02:48:38;98011.94;;;14.34;100.00
64080;BME280;51042;49.696;10.808;2023-09-19T02:51:03;98015.47;;;14.35;100.00
64080;BME280;51042;49.696;10.808;2023-09-19T02:53:28;98022.81;;;14.38;100.00
64080;BME280;51042;49.696;10.808;2023-09-19T02:55:55;98022.16;;;14.43;100.00
64080;BME280;51042;49.696;10.808;2023-09-19T02:58:21;98026.13;;;14.51;100.00
64080;BME280;51042;49.696;10.808;2023-09-19T03:00:46;98024.25;;;14.57;100.00
64080;BME280;51042;49.696;10.808;2023-09-19T03:03:14;98025.78;;;14.58;100.00
64080;BME280;51042;49.696;10.808;2023-09-19T03:05:41;98024.25;;;14.57;100.00
64080;BME280;51042;49.696;10.808;2023-09-19T03:08:10;98018.41;;;14.55;100.00
64080;BME280;51042;49.696;10.808;2023-09-19T03:10:35;98025.47;;;14.56;100.00
64080;BME280;51042;49.696;10.808;2023-09-19T03:13:02;98027.31;;;14.59;100.00
64080;BME280;51042;49.696;10.808;2023-09-19T03:15:28;98028.06;;;14.59;100.00
64080;BME280;51042;49.696;10.808;2023-09-19T03:17:54;98027.75;;;14.57;100.00
64080;BME280;51042;49.696;10.808;2023-09-19T03:20:19;98027.94;;;14.54;100.00
64080;BME280;51042;49.696;10.808;2023-09-19T03:22:46;98027.34;;;14.50;100.00
64080;BME280;51042;49.696;10.808;2023-09-19T03:25:11;98024.78;;;14.46;100.00
64080;BME280;51042;49.696;10.808;2023-09-19T03:27:39;98031.72;;;14.42;100.00
64080;BME280;51042;49.696;10.808;2023-09-19T03:30:05;98025.69;;;14.43;100.00
64080;BME280;51042;49.696;10.808;2023-09-19T03:32:33;98036.75;;;14.43;100.00
64080;BME280;51042;49.696;10.808;2023-09-19T03:34:59;98033.34;;;14.48;100.00
64080;BME280;51042;49.696;10.808;2023-09-19T03:37:24;98041.09;;;14.59;100.00
64080;BME280;51042;49.696;10.808;2023-09-19T03:39:49;98046.84;;;14.70;100.00
64080;BME280;51042;49.696;10.808;2023-09-19T03:42:14;98038.50;;;14.79;100.00
64080;BME280;51042;49.696;10.808;2023-09-19T03:44:40;98037.84;;;14.84;100.00
64080;BME280;51042;49.696;10.808;2023-09-19T03:47:05;98030.63;;;14.87;100.00
64080;BME280;51042;49.696;10.808;2023-09-19T03:49:31;98042.66;;;14.98;100.00
64080;BME280;51042;49.696;10.808;2023-09-19T03:51:57;98039.06;;;15.07;100.00
64080;BME280;51042;49.696;10.808;2023-09-19T03:54:22;98045.44;;;15.13;100.00
64080;BME280;51042;49.696;10.808;2023-09-19T03:56:47;98052.00;;;15.16;100.00
64080;BME280;51042;49.696;10.808;2023-09-19T03:59:12;98050.59;;;15.20;100.00
64080;BME280;51042;49.696;10.808;2023-09-19T04:01:37;98057.47;;;15.25;100.00
64080;BME280;51042;49.696;10.808;2023-09-19T04:04:03;98052.97;;;15.27;100.00
64080;BME280;51042;49.696;10.808;2023-09-19T04:06:33;98057.75;;;15.27;100.00
64080;BME280;51042;49.696;10.808;2023-09-19T04:08:59;98050.53;;;15.29;100.00
64080;BME280;51042;49.696;10.808;2023-09-19T04:11:25;98050.06;;;15.31;100.00
64080;BME280;51042;49.696;10.808;2023-09-19T04:13:50;98052.31;;;15.32;100.00
64080;BME280;51042;49.696;10.808;2023-09-19T04:16:15;98062.72;;;15.37;100.00
64080;BME280;51042;49.696;10.808;2023-09-19T04:18:41;98062.53;;;15.41;100.00
64080;BME280;51042;49.696;10.808;2023-09-19T04:21:06;98062.63;;;15.46;100.00
64080;BME280;51042;49.696;10.808;2023-09-19T04:23:32;98064.44;;;15.49;100.00
64080;BME280;51042;49.696;10.808;2023-09-19T04:25:57;98068.47;;;15.48;100.00
64080;BME280;51042;49.696;10.808;2023-09-19T04:28:22;98073.03;;;15.51;100.00
64080;BME280;51042;49.696;10.808;2023-09-19T04:30:48;98073.16;;;15.57;100.00
64080;BME280;51042;49.696;10.808;2023-09-19T04:33:13;98065.16;;;15.59;100.00
64080;BME280;51042;49.696;10.808;2023-09-19T04:35:39;98066.47;;;15.64;100.00
64080;BME280;51042;49.696;10.808;2023-09-19T04:38:07;98068.00;;;15.65;100.00
64080;BME280;51042;49.696;10.808;2023-09-19T04:40:32;98067.03;;;15.68;100.00
64080;BME280;51042;49.696;10.808;2023-09-19T04:42:58;98077.66;;;15.69;100.00
64080;BME280;51042;49.696;10.808;2023-09-19T04:45:24;98071.16;;;15.72;100.00
64080;BME280;51042;49.696;10.808;2023-09-19T04:47:50;98075.25;;;15.77;100.00
64080;BME280;51042;49.696;10.808;2023-09-19T04:50:15;98078.78;;;15.77;100.00
64080;BME280;51042;49.696;10.808;2023-09-19T04:52:42;98075.81;;;15.81;100.00
64080;BME280;51042;49.696;10.808;2023-09-19T04:55:12;98081.66;;;15.83;100.00
64080;BME280;51042;49.696;10.808;2023-09-19T04:57:42;98083.94;;;15.84;100.00
64080;BME280;51042;49.696;10.808;2023-09-19T05:00:08;98086.97;;;15.86;100.00
64080;BME280;51042;49.696;10.808;2023-09-19T05:02:37;98086.50;;;15.88;100.00
64080;BME280;51042;49.696;10.808;2023-09-19T05:05:03;98090.81;;;15.89;100.00
64080;BME280;51042;49.696;10.808;2023-09-19T05:07:29;98092.03;;;15.88;100.00
64080;BME280;51042;49.696;10.808;2023-09-19T05:09:55;98094.53;;;15.86;100.00
64080;BME280;51042;49.696;10.808;2023-09-19T05:12:20;98102.34;;;15.87;100.00
64080;BME280;51042;49.696;10.808;2023-09-19T05:14:45;98103.59;;;15.86;100.00
64080;BME280;51042;49.696;10.808;2023-09-19T05:17:10;98099.28;;;15.85;100.00
64080;BME280;51042;49.696;10.808;2023-09-19T05:19:36;98105.59;;;15.86;100.00
64080;BME280;51042;49.696;10.808;2023-09-19T05:22:01;98118.50;;;15.89;100.00
64080;BME280;51042;49.696;10.808;2023-09-19T05:24:29;98113.88;;;15.86;100.00
64080;BME280;51042;49.696;10.808;2023-09-19T05:26:54;98122.69;;;15.84;100.00
64080;BME280;51042;49.696;10.808;2023-09-19T05:29:20;98123.84;;;15.78;100.00
64080;BME280;51042;49.696;10.808;2023-09-19T05:31:45;98129.28;;;15.72;100.00
64080;BME280;51042;49.696;10.808;2023-09-19T05:34:10;98133.34;;;15.62;100.00
64080;BME280;51042;49.696;10.808;2023-09-19T05:36:36;98139.19;;;15.64;100.00
64080;BME280;51042;49.696;10.808;2023-09-19T05:39:01;98139.47;;;15.66;100.00
64080;BME280;51042;49.696;10.808;2023-09-19T05:41:26;98138.22;;;15.67;100.00
64080;BME280;51042;49.696;10.808;2023-09-19T05:43:51;98143.47;;;15.65;100.00
64080;BME280;51042;49.696;10.808;2023-09-19T05:46:17;98143.16;;;15.63;100.00
64080;BME280;51042;49.696;10.808;2023-09-19T05:48:42;98148.91;;;15.60;100.00
64080;BME280;51042;49.696;10.808;2023-09-19T05:51:09;98151.38;;;15.58;100.00
64080;BME280;51042;49.696;10.808;2023-09-19T05:53:34;98152.13;;;15.58;100.00
64080;BME280;51042;49.696;10.808;2023-09-19T05:56:00;98150.13;;;15.59;100.00
64080;BME280;51042;49.696;10.808;2023-09-19T05:58:26;98160.44;;;15.58;100.00
64080;BME280;51042;49.696;10.808;2023-09-19T06:00:51;98161.97;;;15.59;100.00
64080;BME280;51042;49.696;10.808;2023-09-19T06:03:17;98164.25;;;15.61;100.00
64080;BME280;51042;49.696;10.808;2023-09-19T06:05:43;98173.34;;;15.76;100.00
64080;BME280;51042;49.696;10.808;2023-09-19T06:08:11;98164.88;;;15.94;100.00
64080;BME280;51042;49.696;10.808;2023-09-19T06:10:36;98172.31;;;16.17;100.00
64080;BME280;51042;49.696;10.808;2023-09-19T06:13:05;98178.13;;;16.34;100.00
64080;BME280;51042;49.696;10.808;2023-09-19T06:15:30;98179.81;;;16.46;100.00
64080;BME280;51042;49.696;10.808;2023-09-19T06:17:58;98179.06;;;16.46;100.00
64080;BME280;51042;49.696;10.808;2023-09-19T06:20:24;98185.38;;;16.61;100.00
64080;BME280;51042;49.696;10.808;2023-09-19T06:22:50;98188.69;;;16.80;100.00
64080;BME280;51042;49.696;10.808;2023-09-19T06:25:16;98189.38;;;16.95;100.00
64080;BME280;51042;49.696;10.808;2023-09-19T06:27:44;98188.06;;;17.10;100.00
64080;BME280;51042;49.696;10.808;2023-09-19T06:30:10;98184.97;;;17.23;100.00
64080;BME280;51042;49.696;10.808;2023-09-19T06:32:42;98190.53;;;17.43;100.00
64080;BME280;51042;49.696;10.808;2023-09-19T06:35:11;98193.78;;;17.42;100.00
64080;BME280;51042;49.696;10.808;2023-09-19T06:37:36;98189.88;;;17.54;100.00
64080;BME280;51042;49.696;10.808;2023-09-19T06:40:03;98191.16;;;17.73;100.00
64080;BME280;51042;49.696;10.808;2023-09-19T06:42:30;98191.53;;;17.86;100.00
64080;BME280;51042;49.696;10.808;2023-09-19T06:44:55;98191.03;;;17.88;100.00
64080;BME280;51042;49.696;10.808;2023-09-19T06:47:21;98197.53;;;18.05;100.00
64080;BME280;51042;49.696;10.808;2023-09-19T06:49:46;98198.84;;;18.10;100.00
64080;BME280;51042;49.696;10.808;2023-09-19T06:52:11;98198.41;;;17.91;100.00
64080;BME280;51042;49.696;10.808;2023-09-19T06:54:36;98210.34;;;17.77;100.00
64080;BME280;51042;49.696;10.808;2023-09-19T06:57:02;98199.31;;;18.08;100.00
64080;BME280;51042;49.696;10.808;2023-09-19T06:59:28;98209.19;;;18.35;100.00
64080;BME280;51042;49.696;10.808;2023-09-19T07:01:53;98209.44;;;18.37;100.00
64080;BME280;51042;49.696;10.808;2023-09-19T07:04:18;98209.94;;;18.67;100.00
64080;BME280;51042;49.696;10.808;2023-09-19T07:06:50;98208.72;;;19.10;100.00
64080;BME280;51042;49.696;10.808;2023-09-19T07:09:15;98216.34;;;19.15;100.00
64080;BME280;51042;49.696;10.808;2023-09-19T07:11:40;98218.88;;;18.77;100.00
64080;BME280;51042;49.696;10.808;2023-09-19T07:14:05;98221.53;;;18.34;100.00
64080;BME280;51042;49.696;10.808;2023-09-19T07:16:31;98217.44;;;18.29;100.00
64080;BME280;51042;49.696;10.808;2023-09-19T07:18:56;98225.13;;;18.14;100.00
64080;BME280;51042;49.696;10.808;2023-09-19T07:21:22;98225.94;;;18.20;100.00
64080;BME280;51042;49.696;10.808;2023-09-19T07:23:48;98224.63;;;17.90;100.00
64080;BME280;51042;49.696;10.808;2023-09-19T07:26:14;98233.44;;;17.88;100.00
64080;BME280;51042;49.696;10.808;2023-09-19T07:28:39;98235.84;;;18.01;100.00
64080;BME280;51042;49.696;10.808;2023-09-19T07:31:05;98229.09;;;18.08;100.00
64080;BME280;51042;49.696;10.808;2023-09-19T07:33:30;98234.47;;;18.11;100.00
64080;BME280;51042;49.696;10.808;2023-09-19T07:35:55;98237.13;;;18.26;100.00
64080;BME280;51042;49.696;10.808;2023-09-19T07:38:20;98238.91;;;18.55;100.00
64080;BME280;51042;49.696;10.808;2023-09-19T07:40:46;98242.97;;;18.91;100.00
64080;BME280;51042;49.696;10.808;2023-09-19T07:43:11;98251.66;;;19.04;100.00
64080;BME280;51042;49.696;10.808;2023-09-19T07:45:36;98245.50;;;18.89;97.52
64080;BME280;51042;49.696;10.808;2023-09-19T07:48:02;98245.72;;;18.85;100.00
64080;BME280;51042;49.696;10.808;2023-09-19T07:50:29;98251.84;;;18.95;100.00
64080;BME280;51042;49.696;10.808;2023-09-19T07:52:55;98259.22;;;18.98;98.27
64080;BME280;51042;49.696;10.808;2023-09-19T07:55:21;98267.88;;;19.05;96.45
64080;BME280;51042;49.696;10.808;2023-09-19T07:57:50;98266.16;;;19.19;95.15
64080;BME280;51042;49.696;10.808;2023-09-19T08:00:15;98272.28;;;19.23;88.92
64080;BME280;51042;49.696;10.808;2023-09-19T08:02:40;98265.72;;;19.26;89.46
64080;BME280;51042;49.696;10.808;2023-09-19T08:05:07;98274.31;;;19.71;88.30
64080;BME280;51042;49.696;10.808;2023-09-19T08:07:35;98278.00;;;20.16;85.02
64080;BME280;51042;49.696;10.808;2023-09-19T08:10:01;98274.56;;;20.54;80.65
64080;BME280;51042;49.696;10.808;2023-09-19T08:12:26;98283.84;;;20.12;81.40
64080;BME280;51042;49.696;10.808;2023-09-19T08:14:51;98289.53;;;20.68;81.38
64080;BME280;51042;49.696;10.808;2023-09-19T08:17:17;98286.22;;;20.58;77.88
64080;BME280;51042;49.696;10.808;2023-09-19T08:19:42;98296.97;;;20.01;79.02
64080;BME280;51042;49.696;10.808;2023-09-19T08:22:10;98308.56;;;19.88;80.08
64080;BME280;51042;49.696;10.808;2023-09-19T08:24:35;98306.94;;;19.65;79.80
64080;BME280;51042;49.696;10.808;2023-09-19T08:27:00;98304.94;;;19.65;81.07
64080;BME280;51042;49.696;10.808;2023-09-19T08:29:27;98301.72;;;19.83;79.44
64080;BME280;51042;49.696;10.808;2023-09-19T08:31:56;98295.72;;;20.02;79.57
64080;BME280;51042;49.696;10.808;2023-09-19T08:34:22;98291.91;;;19.99;77.97
64080;BME280;51042;49.696;10.808;2023-09-19T08:36:47;98295.72;;;20.02;79.89
64080;BME280;51042;49.696;10.808;2023-09-19T08:39:13;98302.25;;;19.87;80.85
64080;BME280;51042;49.696;10.808;2023-09-19T08:41:38;98299.00;;;20.00;82.85
64080;BME280;51042;49.696;10.808;2023-09-19T08:44:03;98293.41;;;19.89;79.90
64080;BME280;51042;49.696;10.808;2023-09-19T08:46:30;98308.31;;;19.43;80.20
64080;BME280;51042;49.696;10.808;2023-09-19T08:49:05;98306.84;;;19.11;81.77
64080;BME280;51042;49.696;10.808;2023-09-19T08:51:39;98316.91;;;19.40;83.17
64080;BME280;51042;49.696;10.808;2023-09-19T08:54:09;98310.19;;;19.58;79.29
64080;BME280;51042;49.696;10.808;2023-09-19T08:56:38;98300.91;;;19.66;78.27
64080;BME280;51042;49.696;10.808;2023-09-19T08:59:04;98316.66;;;19.43;77.28
64080;BME280;51042;49.696;10.808;2023-09-19T09:01:32;98305.53;;;19.43;77.37
64080;BME280;51042;49.696;10.808;2023-09-19T09:03:58;98315.84;;;19.74;78.58
64080;BME280;51042;49.696;10.808;2023-09-19T09:06:24;98323.78;;;19.92;76.89
64080;BME280;51042;49.696;10.808;2023-09-19T09:08:50;98304.56;;;19.94;74.47
64080;BME280;51042;49.696;10.808;2023-09-19T09:11:15;98317.94;;;19.90;77.32
64080;BME280;51042;49.696;10.808;2023-09-19T09:13:42;98324.38;;;20.13;77.53
64080;BME280;51042;49.696;10.808;2023-09-19T09:16:08;98318.28;;;20.20;74.99
64080;BME280;51042;49.696;10.808;2023-09-19T09:18:34;98321.88;;;20.26;74.41
64080;BME280;51042;49.696;10.808;2023-09-19T09:21:00;98323.22;;;20.36;75.25
64080;BME280;51042;49.696;10.808;2023-09-19T09:23:26;98337.56;;;20.13;77.04
64080;BME280;51042;49.696;10.808;2023-09-19T09:25:54;98330.09;;;19.87;76.09
64080;BME280;51042;49.696;10.808;2023-09-19T09:28:21;98332.47;;;19.58;77.43
64080;BME280;51042;49.696;10.808;2023-09-19T09:30:47;98327.88;;;19.54;78.28
64080;BME280;51042;49.696;10.808;2023-09-19T09:33:13;98332.84;;;19.82;78.72
64080;BME280;51042;49.696;10.808;2023-09-19T09:36:12;98339.19;;;19.82;78.31
64080;BME280;51042;49.696;10.808;2023-09-19T09:38:46;98336.38;;;19.77;79.35
64080;BME280;51042;49.696;10.808;2023-09-19T09:41:13;98335.31;;;19.69;80.67
64080;BME280;51042;49.696;10.808;2023-09-19T09:43:52;98337.56;;;19.59;78.96
64080;BME280;51042;49.696;10.808;2023-09-19T09:46:18;98329.19;;;20.13;78.85
64080;BME280;51042;49.696;10.808;2023-09-19T09:49:04;98338.28;;;20.08;78.19
64080;BME280;51042;49.696;10.808;2023-09-19T09:51:58;98332.34;;;20.43;77.30
64080;BME280;51042;49.696;10.808;2023-09-19T09:54:27;98328.66;;;20.14;78.16
64080;BME280;51042;49.696;10.808;2023-09-19T09:57:08;98330.19;;;20.15;77.91
64080;BME280;51042;49.696;10.808;2023-09-19T10:02:07;98321.81;;;20.04;73.79
64080;BME280;51042;49.696;10.808;2023-09-19T10:04:32;98317.06;;;20.27;71.81
64080;BME280;51042;49.696;10.808;2023-09-19T10:07:01;98315.78;;;20.22;72.66
64080;BME280;51042;49.696;10.808;2023-09-19T10:09:30;98323.50;;;20.66;70.47
64080;BME280;51042;49.696;10.808;2023-09-19T10:12:07;98325.81;;;21.29;69.22
64080;BME280;51042;49.696;10.808;2023-09-19T10:14:37;98316.84;;;21.64;66.23
64080;BME280;51042;49.696;10.808;2023-09-19T10:17:06;98323.78;;;21.35;66.80
64080;BME280;51042;49.696;10.808;2023-09-19T10:22:01;98318.41;;;21.48;67.81
64080;BME280;51042;49.696;10.808;2023-09-19T10:24:26;98316.84;;;21.70;65.72
64080;BME280;51042;49.696;10.808;2023-09-19T10:26:53;98314.56;;;21.57;65.60
64080;BME280;51042;49.696;10.808;2023-09-19T10:29:19;98319.16;;;21.54;66.24
64080;BME280;51042;49.696;10.808;2023-09-19T10:31:47;98327.06;;;21.50;65.56
64080;BME280;51042;49.696;10.808;2023-09-19T10:34:14;98323.03;;;21.29;63.99
64080;BME280;51042;49.696;10.808;2023-09-19T10:36:39;98325.31;;;21.20;65.25
64080;BME280;51042;49.696;10.808;2023-09-19T10:39:07;98311.59;;;20.94;64.01
64080;BME280;51042;49.696;10.808;2023-09-19T10:41:34;98316.66;;;21.06;67.09
64080;BME280;51042;49.696;10.808;2023-09-19T10:44:03;98320.47;;;21.03;63.33
64080;BME280;51042;49.696;10.808;2023-09-19T10:46:29;98319.25;;;21.21;64.30
64080;BME280;51042;49.696;10.808;2023-09-19T10:48:58;98323.72;;;21.69;62.24
64080;BME280;51042;49.696;10.808;2023-09-19T10:51:24;98327.81;;;21.40;61.36
64080;BME280;51042;49.696;10.808;2023-09-19T10:54:05;98324.28;;;21.45;63.12
64080;BME280;51042;49.696;10.808;2023-09-19T11:01:49;98325.16;;;21.92;58.92
64080;BME280;51042;49.696;10.808;2023-09-19T11:04:35;98340.06;;;22.22;58.12
64080;BME280;51042;49.696;10.808;2023-09-19T11:07:05;98325.44;;;21.77;59.79
64080;BME280;51042;49.696;10.808;2023-09-19T11:12:11;98327.00;;;21.67;60.15
64080;BME280;51042;49.696;10.808;2023-09-19T11:14:40;98323.28;;;22.17;61.02
64080;BME280;51042;49.696;10.808;2023-09-19T11:22:24;98317.16;;;23.00;58.54
64080;BME280;51042;49.696;10.808;2023-09-19T11:24:51;98309.25;;;23.04;58.60
64080;BME280;51042;49.696;10.808;2023-09-19T11:27:16;98321.97;;;23.05;58.62
64080;BME280;51042;49.696;10.808;2023-09-19T11:29:43;98313.22;;;23.14;57.87
64080;BME280;51042;49.696;10.808;2023-09-19T11:32:08;98316.75;;;22.91;55.58
64080;BME280;51042;49.696;10.808;2023-09-19T11:34:38;98301.00;;;22.47;56.47
64080;BME280;51042;49.696;10.808;2023-09-19T11:39:36;98300.59;;;22.72;55.28
64080;BME280;51042;49.696;10.808;2023-09-19T11:42:03;98293.44;;;22.77;53.99
64080;BME280;51042;49.696;10.808;2023-09-19T11:44:48;98301.59;;;22.75;54.47
64080;BME280;51042;49.696;10.808;2023-09-19T11:47:16;98318.97;;;22.21;55.50
64080;BME280;51042;49.696;10.808;2023-09-19T11:49:43;98310.13;;;22.06;55.92
64080;BME280;51042;49.696;10.808;2023-09-19T11:52:09;98303.81;;;22.41;55.19
64080;BME280;51042;49.696;10.808;2023-09-19T11:54:35;98309.41;;;22.88;54.66
64080;BME280;51042;49.696;10.808;2023-09-19T11:57:02;98303.75;;;22.93;53.20
64080;BME280;51042;49.696;10.808;2023-09-19T11:59:28;98305.19;;;23.05;52.55
64080;BME280;51042;49.696;10.808;2023-09-19T12:01:54;98302.19;;;22.98;53.45
64080;BME280;51042;49.696;10.808;2023-09-19T12:04:44;98310.22;;;22.71;54.29
64080;BME280;51042;49.696;10.808;2023-09-19T12:07:09;98295.47;;;22.76;54.33
64080;BME280;51042;49.696;10.808;2023-09-19T12:09:41;98304.63;;;22.77;56.11
64080;BME280;51042;49.696;10.808;2023-09-19T12:12:18;98309.16;;;22.45;54.92
64080;BME280;51042;49.696;10.808;2023-09-19T12:14:47;98310.84;;;22.12;56.27
64080;BME280;51042;49.696;10.808;2023-09-19T12:17:12;98307.06;;;22.10;55.92
64080;BME280;51042;49.696;10.808;2023-09-19T12:19:38;98309.19;;;22.39;55.89
64080;BME280;51042;49.696;10.808;2023-09-19T12:22:04;98303.66;;;22.74;55.56
64080;BME280;51042;49.696;10.808;2023-09-19T12:24:29;98293.13;;;23.16;53.73
64080;BME280;51042;49.696;10.808;2023-09-19T12:26:59;98296.28;;;23.01;51.41
64080;BME280;51042;49.696;10.808;2023-09-19T12:29:26;98308.03;;;23.00;51.00
64080;BME280;51042;49.696;10.808;2023-09-19T12:34:19;98302.84;;;22.79;51.52
64080;BME280;51042;49.696;10.808;2023-09-19T12:36:45;98303.47;;;22.97;52.13
64080;BME280;51042;49.696;10.808;2023-09-19T12:39:10;98301.91;;;23.26;52.62
64080;BME280;51042;49.696;10.808;2023-09-19T12:41:36;98304.63;;;23.07;53.06
64080;BME280;51042;49.696;10.808;2023-09-19T12:44:02;98310.41;;;22.49;54.54
64080;BME280;51042;49.696;10.808;2023-09-19T12:46:33;98305.47;;;22.20;55.83
64080;BME280;51042;49.696;10.808;2023-09-19T12:49:15;98301.41;;;22.62;55.65
64080;BME280;51042;49.696;10.808;2023-09-19T12:51:42;98305.28;;;22.89;54.79
64080;BME280;51042;49.696;10.808;2023-09-19T12:54:08;98298.47;;;23.14;53.79
64080;BME280;51042;49.696;10.808;2023-09-19T12:56:42;98292.56;;;22.93;52.03
64080;BME280;51042;49.696;10.808;2023-09-19T12:59:14;98302.59;;;22.77;53.25
64080;BME280;51042;49.696;10.808;2023-09-19T13:01:40;98297.16;;;22.91;53.64
64080;BME280;51042;49.696;10.808;2023-09-19T13:06:45;98281.75;;;23.33;52.06
64080;BME280;51042;49.696;10.808;2023-09-19T13:09:12;98277.88;;;23.36;51.98
64080;BME280;51042;49.696;10.808;2023-09-19T13:11:39;98275.47;;;23.51;52.67
64080;BME280;51042;49.696;10.808;2023-09-19T13:17:04;98279.81;;;23.22;51.76
64080;BME280;51042;49.696;10.808;2023-09-19T13:19:37;98286.25;;;22.87;51.47
64080;BME280;51042;49.696;10.808;2023-09-19T13:22:04;98278.13;;;22.84;51.45
64080;BME280;51042;49.696;10.808;2023-09-19T13:24:30;98272.13;;;22.68;52.22